Time;durP1;ratioP1;P1;durP2;ratioP2;P2;SDS_P1;SDS_P2;PMS_P1;PMS_P2;Temp;Humidity;BMP_temperature;BMP_pressure;BME280_temperature;BME280_humidity;BME280_pressure;Samples;Min_cycle;Max_cycle;Signal;HPM_P1;HPM_P2
2022/09/08 00:01:26;;;;;;;;;;;;;;;21.68;63.06;99696.84;4360198;32;34071;-82
2022/09/08 00:03:54;;;;;;;;;;;;;;;21.58;63.54;99689.78;4349022;32;33230;-82
2022/09/08 00:06:22;;;;;;;;;;;;;;;21.62;63.38;99691.19;4349003;32;33668;-82
2022/09/08 00:08:51;;;;;;;;;;;;;;;21.53;63.44;99687.50;4349306;32;33724;-82
2022/09/08 00:11:20;;;;;;;;;;;;;;;21.61;63.20;99690.34;4361814;32;32968;-82
2022/09/08 00:13:47;;;;;;;;;;;;;;;21.44;63.43;99682.97;4362767;32;34184;-83
2022/09/08 00:16:18;;;;;;;;;;;;;;;21.67;62.69;99679.03;4349445;32;33167;-82
2022/09/08 00:18:47;;;;;;;;;;;;;;;21.37;63.75;99680.00;4360300;32;31770;-82
2022/09/08 00:21:15;;;;;;;;;;;;;;;21.21;64.32;99672.44;4335221;32;34286;-82
2022/09/08 00:23:42;;;;;;;;;;;;;;;21.10;64.77;99664.50;4361763;32;34339;-82
2022/09/08 00:26:09;;;;;;;;;;;;;;;21.60;63.10;99661.78;4349115;32;33037;-82
2022/09/08 00:28:37;;;;;;;;;;;;;;;20.93;65.25;99663.31;4360692;32;33928;-83
2022/09/08 00:31:05;;;;;;;;;;;;;;;20.87;65.54;99660.34;4349177;32;34580;-83
2022/09/08 00:33:33;;;;;;;;;;;;;;;21.35;63.88;99656.94;4362047;32;34272;-83
2022/09/08 00:36:03;;;;;;;;;;;;;;;20.93;65.14;99659.78;4361570;32;33916;-83
2022/09/08 00:38:31;;;;;;;;;;;;;;;20.77;65.95;99656.78;4349456;32;32925;-83
2022/09/08 00:40:58;;;;;;;;;;;;;;;21.02;64.99;99648.22;4349165;32;33191;-83
2022/09/08 00:43:37;;;;;;;;;;;;;;;21.04;64.90;99651.63;4332120;32;793444;-83
2022/09/08 00:46:17;;;;;;;;;;;;;;;20.63;65.94;99645.41;4344070;32;32674;-83
2022/09/08 00:48:48;;;;;;;;;;;;;;;20.89;65.16;99648.50;4360414;32;33388;-82
2022/09/08 00:51:18;;;;;;;;;;;;;;;20.88;65.17;99640.56;4360850;32;33906;-82
2022/09/08 00:53:45;;;;;;;;;;;;;;;20.93;64.97;99641.84;4349270;32;33848;-83
2022/09/08 00:56:13;;;;;;;;;;;;;;;21.13;64.32;99637.38;4336699;32;33499;-83
2022/09/08 00:58:41;;;;;;;;;;;;;;;20.75;65.43;99639.94;4348582;32;33228;-83
2022/09/08 01:01:08;;;;;;;;;;;;;;;20.96;64.67;99641.56;4360679;32;33665;-83
2022/09/08 01:03:39;;;;;;;;;;;;;;;21.06;64.30;99643.44;4361479;32;35019;-84
2022/09/08 01:06:10;;;;;;;;;;;;;;;20.65;65.70;99642.59;4360298;32;34233;-84
2022/09/08 01:14:16;;;;;;;;;;;;;;;21.05;64.44;99639.06;4349316;32;33668;-83
2022/09/08 01:16:45;;;;;;;;;;;;;;;21.26;63.50;99636.25;4361903;32;35158;-83
2022/09/08 01:19:23;;;;;;;;;;;;;;;21.05;64.15;99639.06;4361988;32;31927;-82
2022/09/08 01:22:06;;;;;;;;;;;;;;;21.06;64.19;99638.91;4345327;32;33365;-82
2022/09/08 01:24:46;;;;;;;;;;;;;;;21.27;63.37;99628.09;4348303;32;33027;-83
2022/09/08 01:27:22;;;;;;;;;;;;;;;20.98;64.32;99644.09;4362152;32;34947;-83
2022/09/08 01:29:51;;;;;;;;;;;;;;;21.11;63.88;99644.72;4347626;32;33297;-82
2022/09/08 01:32:19;;;;;;;;;;;;;;;21.04;63.87;99632.84;4347588;32;34581;-82
2022/09/08 01:34:46;;;;;;;;;;;;;;;21.11;63.58;99623.22;4360582;32;34272;-83
2022/09/08 01:37:14;;;;;;;;;;;;;;;20.98;63.88;99628.00;4348424;32;33914;-83
2022/09/08 01:39:41;;;;;;;;;;;;;;;20.69;64.86;99617.19;4373562;32;33694;-83
2022/09/08 01:42:09;;;;;;;;;;;;;;;21.01;63.72;99622.38;4362528;32;34656;-84
2022/09/08 01:44:37;;;;;;;;;;;;;;;20.78;64.43;99626.25;4363801;32;33045;-84
2022/09/08 01:47:04;;;;;;;;;;;;;;;20.85;64.15;99632.78;4364129;32;32813;-84
2022/09/08 01:49:31;;;;;;;;;;;;;;;20.97;63.67;99623.62;4374132;32;33942;-82
2022/09/08 01:51:59;;;;;;;;;;;;;;;20.91;63.90;99632.25;4364104;32;34909;-83
2022/09/08 01:54:31;;;;;;;;;;;;;;;20.93;63.99;99625.72;4375433;32;33888;-82
2022/09/08 01:56:58;;;;;;;;;;;;;;;20.92;63.88;99633.94;4351463;32;33849;-83
2022/09/08 01:59:26;;;;;;;;;;;;;;;20.88;64.05;99638.72;4375766;32;33135;-82
2022/09/08 02:01:54;;;;;;;;;;;;;;;20.90;64.05;99635.91;4374667;32;33952;-82
2022/09/08 02:04:21;;;;;;;;;;;;;;;20.74;64.45;99624.84;4373080;32;33340;-82
2022/09/08 02:06:49;;;;;;;;;;;;;;;20.68;64.58;99627.06;4375838;32;34022;-82
2022/09/08 02:09:16;;;;;;;;;;;;;;;20.92;63.83;99623.19;4362586;32;33272;-82
2022/09/08 02:11:44;;;;;;;;;;;;;;;20.72;64.34;99627.66;4338984;32;32678;-82
2022/09/08 02:14:12;;;;;;;;;;;;;;;20.83;64.05;99630.22;4375843;32;33215;-82
2022/09/08 02:16:39;;;;;;;;;;;;;;;20.83;64.01;99635.59;4363379;32;33218;-82
2022/09/08 02:19:06;;;;;;;;;;;;;;;20.95;63.57;99622.94;4362597;32;32125;-82
2022/09/08 02:21:33;;;;;;;;;;;;;;;21.15;63.00;99623.81;4363188;32;34132;-82
2022/09/08 02:24:01;;;;;;;;;;;;;;;20.85;64.10;99628.28;4363659;32;34412;-82
2022/09/08 02:26:29;;;;;;;;;;;;;;;20.74;64.40;99631.03;4363587;32;34787;-82
2022/09/08 02:28:57;;;;;;;;;;;;;;;20.69;64.53;99627.91;4375928;32;31987;-82
2022/09/08 02:31:25;;;;;;;;;;;;;;;20.50;65.54;99628.69;4373293;32;34978;-82
2022/09/08 02:33:53;;;;;;;;;;;;;;;20.45;65.43;99636.25;4363426;32;33544;-82
2022/09/08 02:36:20;;;;;;;;;;;;;;;20.40;65.49;99639.34;4362827;32;33919;-82
2022/09/08 02:38:52;;;;;;;;;;;;;;;20.55;64.95;99631.81;4362492;32;31888;-82
2022/09/08 02:41:20;;;;;;;;;;;;;;;20.51;65.23;99641.13;4362873;32;33001;-82
2022/09/08 02:43:48;;;;;;;;;;;;;;;20.68;64.65;99635.13;4364690;32;33829;-82
2022/09/08 02:46:15;;;;;;;;;;;;;;;20.40;65.14;99633.97;4362624;32;34730;-82
2022/09/08 02:48:43;;;;;;;;;;;;;;;20.42;64.98;99628.50;4365030;32;34091;-82
2022/09/08 02:51:12;;;;;;;;;;;;;;;20.52;64.88;99626.75;4377960;32;33886;-82
2022/09/08 02:53:39;;;;;;;;;;;;;;;20.67;64.31;99624.53;4377745;32;32790;-83
2022/09/08 02:56:07;;;;;;;;;;;;;;;20.69;64.28;99626.09;4370827;32;33463;-84
2022/09/08 02:58:34;;;;;;;;;;;;;;;20.59;64.50;99627.87;4364956;32;33381;-84
2022/09/08 03:01:03;;;;;;;;;;;;;;;20.59;64.57;99622.50;4352579;32;33093;-84
2022/09/08 03:03:30;;;;;;;;;;;;;;;20.60;64.53;99629.56;4364425;32;34299;-83
2022/09/08 03:05:58;;;;;;;;;;;;;;;20.61;64.56;99622.41;4364847;32;34141;-82
2022/09/08 03:08:25;;;;;;;;;;;;;;;20.53;64.73;99612.34;4377026;32;33403;-83
2022/09/08 03:10:53;;;;;;;;;;;;;;;20.62;64.42;99616.03;4362976;32;34045;-82
2022/09/08 03:13:20;;;;;;;;;;;;;;;20.54;64.75;99615.88;4364992;32;33850;-83
2022/09/08 03:15:48;;;;;;;;;;;;;;;20.51;64.93;99619.69;4364741;32;33857;-83
2022/09/08 03:18:15;;;;;;;;;;;;;;;20.70;64.34;99614.38;4365076;32;33943;-83
2022/09/08 03:20:44;;;;;;;;;;;;;;;20.79;63.86;99620.75;4364866;32;33998;-82
2022/09/08 03:23:16;;;;;;;;;;;;;;;20.82;63.81;99606.22;4377152;32;33503;-83
2022/09/08 03:25:44;;;;;;;;;;;;;;;20.89;63.54;99594.81;4364595;32;34057;-83
2022/09/08 03:28:17;;;;;;;;;;;;;;;20.72;64.24;99606.19;4376908;32;33211;-83
2022/09/08 03:30:45;;;;;;;;;;;;;;;20.82;63.89;99595.50;4365316;32;34964;-84
2022/09/08 03:33:12;;;;;;;;;;;;;;;20.94;63.28;99607.81;4364935;32;34058;-84
2022/09/08 03:35:39;;;;;;;;;;;;;;;20.95;63.27;99604.16;4364564;32;32828;-84
2022/09/08 03:38:07;;;;;;;;;;;;;;;20.90;63.33;99601.88;4352365;32;33338;-84
2022/09/08 03:40:35;;;;;;;;;;;;;;;20.77;63.61;99612.00;4377046;32;33782;-84
2022/09/08 03:43:02;;;;;;;;;;;;;;;20.85;63.47;99614.00;4364547;32;34466;-84
2022/09/08 03:45:30;;;;;;;;;;;;;;;20.75;63.38;99611.31;4364752;32;35088;-84
2022/09/08 03:47:57;;;;;;;;;;;;;;;20.77;63.32;99621.88;4363178;32;33926;-84
2022/09/08 03:50:25;;;;;;;;;;;;;;;20.89;62.89;99620.81;4351309;32;34009;-84
2022/09/08 03:52:52;;;;;;;;;;;;;;;21.16;62.02;99620.13;4364121;32;34690;-84
2022/09/08 03:55:20;;;;;;;;;;;;;;;20.89;62.89;99613.59;4375076;32;32713;-84
2022/09/08 03:57:47;;;;;;;;;;;;;;;20.77;63.33;99624.56;4364090;32;32258;-83
2022/09/08 04:00:15;;;;;;;;;;;;;;;20.70;63.33;99624.28;4364240;32;34597;-84
2022/09/08 04:02:43;;;;;;;;;;;;;;;20.61;63.46;99630.44;4351571;32;34444;-82
2022/09/08 04:05:10;;;;;;;;;;;;;;;20.40;64.35;99633.13;4351961;32;33660;-83
2022/09/08 04:07:38;;;;;;;;;;;;;;;20.48;64.15;99632.50;4363308;32;32403;-83
2022/09/08 04:10:07;;;;;;;;;;;;;;;20.53;63.80;99631.12;4364364;32;34909;-83
2022/09/08 04:12:43;;;;;;;;;;;;;;;20.65;63.52;99638.09;4376352;32;34321;-83
2022/09/08 04:15:10;;;;;;;;;;;;;;;20.71;63.20;99648.28;4350357;32;34513;-83
2022/09/08 04:17:38;;;;;;;;;;;;;;;20.71;63.20;99652.78;4362369;32;32631;-83
2022/09/08 04:20:06;;;;;;;;;;;;;;;20.65;63.29;99643.47;4363177;32;33294;-83
2022/09/08 04:22:33;;;;;;;;;;;;;;;20.75;62.99;99643.50;4362171;32;34598;-83
2022/09/08 04:25:01;;;;;;;;;;;;;;;20.50;63.62;99642.09;4376181;32;32719;-84
2022/09/08 04:27:28;;;;;;;;;;;;;;;20.49;63.65;99629.69;4350884;32;33693;-84
2022/09/08 04:29:56;;;;;;;;;;;;;;;20.21;64.60;99632.03;4363000;32;33998;-84
2022/09/08 04:32:24;;;;;;;;;;;;;;;20.18;64.77;99626.97;4376367;32;33887;-82
2022/09/08 04:34:51;;;;;;;;;;;;;;;20.34;63.96;99620.25;4364736;32;33540;-81
2022/09/08 04:37:19;;;;;;;;;;;;;;;20.53;63.04;99623.06;4363925;32;32806;-81
2022/09/08 04:39:50;;;;;;;;;;;;;;;20.48;63.11;99619.94;4365014;32;32801;-82
2022/09/08 04:42:23;;;;;;;;;;;;;;;20.27;64.56;99625.31;4371913;32;34193;-81
2022/09/08 04:44:50;;;;;;;;;;;;;;;20.31;64.06;99633.94;4363207;32;34017;-83
2022/09/08 04:47:18;;;;;;;;;;;;;;;20.44;63.97;99634.56;4362393;32;31854;-84
2022/09/08 04:49:45;;;;;;;;;;;;;;;20.56;63.70;99630.84;4363907;32;34026;-83
2022/09/08 04:52:12;;;;;;;;;;;;;;;20.60;64.02;99632.25;4350464;32;33384;-84
2022/09/08 04:54:40;;;;;;;;;;;;;;;20.89;62.74;99636.91;4362249;32;34290;-84
2022/09/08 04:57:08;;;;;;;;;;;;;;;20.83;62.78;99637.44;4349689;32;33318;-83
2022/09/08 04:59:36;;;;;;;;;;;;;;;20.87;62.52;99631.66;4363662;32;34161;-83
2022/09/08 05:02:03;;;;;;;;;;;;;;;21.08;61.97;99636.97;4362726;32;33108;-83
2022/09/08 05:04:30;;;;;;;;;;;;;;;21.23;61.58;99632.03;4374143;32;34234;-84
2022/09/08 05:06:58;;;;;;;;;;;;;;;21.11;62.21;99638.50;4379786;32;33164;-83
2022/09/08 05:09:25;;;;;;;;;;;;;;;21.32;61.92;99643.81;4363046;32;34843;-83
2022/09/08 05:11:52;;;;;;;;;;;;;;;21.46;61.43;99643.41;4352091;32;32762;-83
2022/09/08 05:14:20;;;;;;;;;;;;;;;21.30;62.09;99640.38;4376754;32;32992;-83
2022/09/08 05:16:47;;;;;;;;;;;;;;;21.39;61.63;99653.00;4377059;32;32228;-83
2022/09/08 05:19:14;;;;;;;;;;;;;;;21.61;60.89;99641.16;4358855;32;34120;-83
2022/09/08 05:21:42;;;;;;;;;;;;;;;22.03;59.47;99646.19;4364145;32;33882;-84
2022/09/08 05:24:09;;;;;;;;;;;;;;;22.03;59.73;99641.69;4376283;32;34318;-83
2022/09/08 05:26:37;;;;;;;;;;;;;;;21.88;59.98;99643.94;4364229;32;32339;-83
2022/09/08 05:29:04;;;;;;;;;;;;;;;21.87;59.88;99653.00;4364549;32;34847;-83
2022/09/08 05:31:32;;;;;;;;;;;;;;;21.79;60.27;99641.25;4352400;32;33633;-83
2022/09/08 05:33:59;;;;;;;;;;;;;;;21.96;59.35;99635.16;4364218;32;33818;-83
2022/09/08 05:36:30;;;;;;;;;;;;;;;22.25;58.79;99627.06;4364481;32;33127;-84
2022/09/08 05:38:57;;;;;;;;;;;;;;;22.01;59.43;99640.13;4356318;32;33904;-83
2022/09/08 05:41:24;;;;;;;;;;;;;;;22.02;59.36;99645.34;4374217;32;33953;-83
2022/09/08 05:43:52;;;;;;;;;;;;;;;21.95;59.86;99644.22;4364308;32;33955;-83
2022/09/08 05:46:20;;;;;;;;;;;;;;;22.10;59.62;99637.41;4351980;32;32293;-84
2022/09/08 05:48:47;;;;;;;;;;;;;;;22.34;59.28;99645.03;4362782;32;33521;-83
2022/09/08 05:51:17;;;;;;;;;;;;;;;22.24;59.21;99634.28;4362016;32;34137;-83
2022/09/08 05:53:45;;;;;;;;;;;;;;;22.34;58.72;99638.81;4361567;32;34126;-82
2022/09/08 05:56:12;;;;;;;;;;;;;;;22.66;57.20;99636.56;4363777;32;34029;-83
2022/09/08 05:58:40;;;;;;;;;;;;;;;22.74;56.83;99616.97;4364136;32;33852;-82
2022/09/08 06:01:08;;;;;;;;;;;;;;;22.47;57.48;99628.56;4351807;32;34521;-83
2022/09/08 06:03:36;;;;;;;;;;;;;;;22.33;57.15;99637.94;4352254;32;33879;-83
2022/09/08 06:06:07;;;;;;;;;;;;;;;22.46;56.82;99633.09;4360873;32;33907;-82
2022/09/08 06:08:35;;;;;;;;;;;;;;;22.51;55.86;99632.66;4365174;32;32998;-82
2022/09/08 06:11:03;;;;;;;;;;;;;;;22.04;57.00;99626.41;4357876;32;32670;-82
2022/09/08 06:13:30;;;;;;;;;;;;;;;21.98;57.50;99625.09;4354855;32;34942;-82
2022/09/08 06:16:02;;;;;;;;;;;;;;;22.19;57.33;99630.34;4354256;32;32533;-82
2022/09/08 06:18:31;;;;;;;;;;;;;;;22.54;56.43;99618.88;4366692;32;33628;-83
2022/09/08 06:21:02;;;;;;;;;;;;;;;22.56;56.07;99622.31;4382028;32;34170;-82
2022/09/08 06:23:30;;;;;;;;;;;;;;;22.66;56.39;99623.09;4366103;32;34777;-82
2022/09/08 06:25:57;;;;;;;;;;;;;;;22.96;55.14;99624.66;4378570;32;32983;-83
2022/09/08 06:28:28;;;;;;;;;;;;;;;22.77;55.74;99618.50;4365976;32;34787;-82
2022/09/08 06:31:06;;;;;;;;;;;;;;;23.09;54.96;99612.69;4376235;32;33238;-82
2022/09/08 06:33:34;;;;;;;;;;;;;;;22.86;55.26;99609.53;4341249;32;33031;-82
2022/09/08 06:36:18;;;;;;;;;;;;;;;23.16;54.68;99608.38;4364019;32;33722;-83
2022/09/08 06:38:47;;;;;;;;;;;;;;;22.91;55.22;99610.81;4365779;32;33580;-83
2022/09/08 06:41:15;;;;;;;;;;;;;;;23.04;54.99;99604.25;4363248;32;34085;-83
2022/09/08 06:43:44;;;;;;;;;;;;;;;23.10;54.18;99592.84;4353335;32;33900;-82
2022/09/08 06:46:13;;;;;;;;;;;;;;;23.27;54.49;99599.25;4365856;32;33492;-83
2022/09/08 06:48:41;;;;;;;;;;;;;;;23.55;53.97;99592.78;4351621;32;33079;-83
2022/09/08 06:51:13;;;;;;;;;;;;;;;23.81;52.82;99589.31;4371677;32;34386;-82
2022/09/08 06:54:01;;;;;;;;;;;;;;;23.91;53.87;99592.75;4353348;32;33704;-83
2022/09/08 06:56:32;;;;;;;;;;;;;;;23.65;53.01;99582.81;4378447;32;31733;-82
2022/09/08 06:59:38;;;;;;;;;;;;;;;23.30;54.62;99580.09;4378601;32;34009;-83
2022/09/08 07:02:38;;;;;;;;;;;;;;;23.46;53.66;99577.56;4366148;32;34636;-83
2022/09/08 07:05:14;;;;;;;;;;;;;;;23.91;52.08;99571.19;4336848;32;34097;-83
2022/09/08 07:08:00;;;;;;;;;;;;;;;23.87;53.34;99567.94;4365713;32;32450;-83
2022/09/08 07:10:28;;;;;;;;;;;;;;;23.87;52.68;99569.81;4378449;32;33593;-83
2022/09/08 07:13:02;;;;;;;;;;;;;;;23.87;53.50;99567.94;4378089;32;33611;-83
2022/09/08 07:15:32;;;;;;;;;;;;;;;24.08;52.81;99567.59;4365908;32;33724;-83
2022/09/08 07:18:02;;;;;;;;;;;;;;;24.12;52.45;99568.09;4365972;32;32418;-83
2022/09/08 07:20:30;;;;;;;;;;;;;;;23.82;53.13;99561.34;4366052;32;34845;-83
2022/09/08 07:23:02;;;;;;;;;;;;;;;24.27;52.28;99561.97;4378059;32;33119;-83
2022/09/08 07:25:35;;;;;;;;;;;;;;;24.66;51.81;99564.19;4371146;32;34915;-83
2022/09/08 07:28:04;;;;;;;;;;;;;;;24.71;50.97;99566.41;4365882;32;32816;-83
2022/09/08 07:30:33;;;;;;;;;;;;;;;24.53;51.51;99564.66;4375398;32;33765;-83
2022/09/08 07:33:19;;;;;;;;;;;;;;;24.43;51.30;99566.63;4375864;32;33101;-83
2022/09/08 07:36:02;;;;;;;;;;;;;;;24.18;52.81;99572.88;4377959;32;33843;-83
2022/09/08 07:38:35;;;;;;;;;;;;;;;24.63;50.73;99575.31;4365631;32;32862;-83
2022/09/08 07:41:03;;;;;;;;;;;;;;;24.92;50.47;99571.38;4365783;32;34685;-83
2022/09/08 07:43:31;;;;;;;;;;;;;;;25.01;50.41;99576.63;4356247;32;34676;-83
2022/09/08 07:46:03;;;;;;;;;;;;;;;24.98;50.73;99576.13;4337064;32;33787;-83
2022/09/08 07:48:43;;;;;;;;;;;;;;;24.87;50.71;99584.50;4362681;32;33663;-83
2022/09/08 07:51:15;;;;;;;;;;;;;;;24.92;50.32;99574.06;4377199;32;34648;-83
2022/09/08 07:54:12;;;;;;;;;;;;;;;25.20;50.46;99589.03;4378088;32;33823;-83
2022/09/08 07:56:43;;;;;;;;;;;;;;;25.49;50.80;99585.00;4356945;32;34663;-83
2022/09/08 07:59:37;;;;;;;;;;;;;;;25.35;50.37;99585.66;4373462;32;33623;-83
2022/09/08 08:02:23;;;;;;;;;;;;;;;25.41;50.08;99599.38;4378048;32;32835;-83
2022/09/08 08:04:58;;;;;;;;;;;;;;;25.64;49.12;99599.56;4363108;32;34631;-83
2022/09/08 08:07:28;;;;;;;;;;;;;;;25.84;49.75;99594.69;4362848;32;32722;-84
2022/09/08 08:10:05;;;;;;;;;;;;;;;26.01;48.75;99600.91;4364330;32;33425;-83
2022/09/08 08:12:44;;;;;;;;;;;;;;;26.15;48.66;99597.50;4362795;32;33456;-83
2022/09/08 08:15:13;;;;;;;;;;;;;;;26.28;47.71;99603.22;4348797;32;34771;-83
2022/09/08 08:17:43;;;;;;;;;;;;;;;26.06;48.27;99603.94;4378888;32;33838;-83
2022/09/08 08:20:11;;;;;;;;;;;;;;;25.80;48.86;99604.16;4378552;32;32268;-83
2022/09/08 08:22:38;;;;;;;;;;;;;;;26.26;49.35;99604.44;4375000;32;33085;-83
2022/09/08 08:25:17;;;;;;;;;;;;;;;26.40;47.88;99608.28;4375216;32;34486;-83
2022/09/08 08:27:49;;;;;;;;;;;;;;;26.44;48.20;99601.53;4350511;32;34248;-83
2022/09/08 08:30:22;;;;;;;;;;;;;;;26.78;48.00;99598.53;4350658;32;32961;-83
2022/09/08 08:32:58;;;;;;;;;;;;;;;26.61;50.10;99615.88;4375490;32;32651;-83
2022/09/08 08:35:43;;;;;;;;;;;;;;;26.61;48.57;99624.00;4364125;32;34722;-83
2022/09/08 08:38:18;;;;;;;;;;;;;;;26.89;47.28;99608.12;4366105;32;34346;-83
2022/09/08 08:40:53;;;;;;;;;;;;;;;27.28;46.80;99611.66;4361738;32;32576;-84
2022/09/08 08:43:21;;;;;;;;;;;;;;;27.04;46.60;99609.06;4377514;32;34051;-84
2022/09/08 08:45:54;;;;;;;;;;;;;;;27.34;46.08;99609.25;4365215;32;33245;-83
2022/09/08 08:48:22;;;;;;;;;;;;;;;27.27;46.32;99599.13;4365110;32;32929;-83
2022/09/08 08:50:49;;;;;;;;;;;;;;;27.57;45.24;99600.09;4377361;32;34041;-83
2022/09/08 08:53:42;;;;;;;;;;;;;;;27.28;45.92;99589.97;4377754;32;33284;-83
2022/09/08 08:56:38;;;;;;;;;;;;;;;27.08;47.24;99587.88;4367255;32;34997;-83
2022/09/08 08:59:18;;;;;;;;;;;;;;;27.54;46.88;99588.78;4377515;32;34578;-83
2022/09/08 09:02:00;;;;;;;;;;;;;;;27.48;46.49;99595.75;4363981;32;33412;-83
2022/09/08 09:05:03;;;;;;;;;;;;;;;27.72;45.95;99586.62;4363837;32;34718;-83
2022/09/08 09:07:51;;;;;;;;;;;;;;;28.28;45.95;99578.94;4302859;33;32675;-83
2022/09/08 09:10:36;;;;;;;;;;;;;;;28.19;45.57;99571.91;4342141;32;34987;-83
2022/09/08 09:13:04;;;;;;;;;;;;;;;27.76;46.03;99560.81;4362582;32;33774;-83
2022/09/08 09:15:37;;;;;;;;;;;;;;;28.03;47.56;99561.25;4362578;32;33062;-83
2022/09/08 09:18:43;;;;;;;;;;;;;;;28.21;45.49;99561.72;4373483;32;33974;-83
2022/09/08 09:21:43;;;;;;;;;;;;;;;28.52;44.49;99544.41;4377329;32;33230;-84
2022/09/08 09:24:19;;;;;;;;;;;;;;;28.74;43.67;99546.16;4344174;32;33656;-83
2022/09/08 09:26:48;;;;;;;;;;;;;;;28.78;44.32;99544.75;4377432;32;33265;-83
2022/09/08 09:29:15;;;;;;;;;;;;;;;28.79;44.77;99546.44;4377384;32;33398;-84
2022/09/08 09:32:04;;;;;;;;;;;;;;;28.63;43.40;99541.25;4378631;32;34948;-83
2022/09/08 09:34:35;;;;;;;;;;;;;;;28.93;44.09;99541.16;4364901;32;32612;-83
2022/09/08 09:37:02;;;;;;;;;;;;;;;29.06;45.36;99531.31;4373360;32;34249;-84
2022/09/08 09:39:35;;;;;;;;;;;;;;;29.43;43.86;99523.91;4364893;32;34038;-83
2022/09/08 09:42:03;;;;;;;;;;;;;;;29.34;42.92;99519.66;4377001;32;35134;-83
2022/09/08 09:44:49;;;;;;;;;;;;;;;29.38;43.67;99523.66;4378096;32;33333;-83
2022/09/08 09:47:20;;;;;;;;;;;;;;;29.44;42.03;99516.62;4367272;32;33923;-83
2022/09/08 09:50:06;;;;;;;;;;;;;;;29.74;43.81;99512.69;4364689;32;33753;-83
2022/09/08 09:52:43;;;;;;;;;;;;;;;29.15;42.31;99513.00;4363535;32;32991;-84
2022/09/08 09:55:33;;;;;;;;;;;;;;;30.03;42.20;99514.38;4364724;32;33405;-84
2022/09/08 09:58:20;;;;;;;;;;;;;;;29.54;42.94;99517.12;4345258;32;34765;-83
2022/09/08 10:01:06;;;;;;;;;;;;;;;29.66;43.48;99523.72;4378238;32;34304;-84
2022/09/08 10:04:06;;;;;;;;;;;;;;;29.50;42.93;99522.09;4364494;32;32651;-84
2022/09/08 10:06:42;;;;;;;;;;;;;;;29.74;44.32;99517.31;4367842;32;34052;-83
2022/09/08 10:09:44;;;;;;;;;;;;;;;29.67;43.25;99517.25;4371059;32;33024;-83
2022/09/08 10:12:12;;;;;;;;;;;;;;;29.88;42.99;99512.81;4348907;32;33133;-83
2022/09/08 10:14:46;;;;;;;;;;;;;;;29.91;42.42;99517.84;4377957;32;34325;-83
2022/09/08 10:17:32;;;;;;;;;;;;;;;30.57;41.89;99519.06;4361375;32;32464;-84
2022/09/08 10:20:09;;;;;;;;;;;;;;;30.82;40.72;99499.50;4349614;32;34486;-84
2022/09/08 10:22:40;;;;;;;;;;;;;;;30.72;40.74;99497.19;4364291;32;34741;-83
2022/09/08 10:25:17;;;;;;;;;;;;;;;30.18;42.85;99508.84;4376179;32;33414;-83
2022/09/08 10:27:56;;;;;;;;;;;;;;;30.63;41.60;99484.75;4376563;32;32912;-84
2022/09/08 10:30:39;;;;;;;;;;;;;;;31.05;40.82;99482.75;4361926;32;34078;-84
2022/09/08 10:33:09;;;;;;;;;;;;;;;31.26;40.26;99476.28;4389038;32;34256;-84
2022/09/08 10:35:37;;;;;;;;;;;;;;;30.69;41.38;99475.75;4380304;32;33153;-84
2022/09/08 10:38:07;;;;;;;;;;;;;;;30.94;42.32;99473.31;4364299;32;32193;-84
2022/09/08 10:40:36;;;;;;;;;;;;;;;31.33;40.39;99480.75;4377652;32;33592;-84
2022/09/08 10:43:23;;;;;;;;;;;;;;;30.98;41.47;99487.38;4373728;32;34335;-83
2022/09/08 10:46:09;;;;;;;;;;;;;;;31.36;39.59;99491.22;4376317;32;33247;-84
2022/09/08 10:48:41;;;;;;;;;;;;;;;31.38;39.52;99488.28;4361346;32;33003;-84
2022/09/08 10:51:31;;;;;;;;;;;;;;;31.39;40.15;99483.69;4361248;32;32723;-84
2022/09/08 10:54:14;;;;;;;;;;;;;;;31.81;38.77;99468.72;4359160;32;33663;-84
2022/09/08 10:56:42;;;;;;;;;;;;;;;31.52;39.14;99473.59;4373581;32;33241;-84
2022/09/08 10:59:10;;;;;;;;;;;;;;;31.84;39.50;99471.91;4349118;32;32426;-84
2022/09/08 11:02:12;;;;;;;;;;;;;;;31.99;38.96;99463.47;4357651;32;34707;-87
2022/09/08 11:04:58;;;;;;;;;;;;;;;32.00;37.65;99467.91;4361879;32;33261;-87
2022/09/08 11:07:41;;;;;;;;;;;;;;;32.07;38.26;99465.13;4372446;32;33977;-86
2022/09/08 11:10:12;;;;;;;;;;;;;;;32.33;36.98;99459.59;4347267;32;32391;-86
2022/09/08 11:12:58;;;;;;;;;;;;;;;31.40;38.04;99458.91;4360645;32;32925;-87
2022/09/08 11:15:35;;;;;;;;;;;;;;;31.36;37.17;99474.84;4346948;32;33869;-87
2022/09/08 11:18:09;;;;;;;;;;;;;;;31.19;38.86;99473.53;4372811;32;33526;-86
2022/09/08 11:20:43;;;;;;;;;;;;;;;31.85;36.84;99473.56;4361847;32;31767;-86
2022/09/08 11:23:32;;;;;;;;;;;;;;;32.19;36.01;99473.50;4358272;32;32465;-86
2022/09/08 11:26:07;;;;;;;;;;;;;;;32.27;34.75;99465.06;4349775;32;35866;-86
2022/09/08 11:28:37;;;;;;;;;;;;;;;32.08;36.16;99458.63;4375611;32;35517;-87
2022/09/08 11:31:23;;;;;;;;;;;;;;;32.55;36.68;99462.03;4374226;32;32913;-87
2022/09/08 11:34:12;;;;;;;;;;;;;;;32.28;34.16;99473.03;4362596;32;33029;-86
2022/09/08 11:37:02;;;;;;;;;;;;;;;32.29;34.86;99463.81;4363529;32;33585;-86
2022/09/08 11:39:29;;;;;;;;;;;;;;;32.77;34.23;99466.13;4371149;32;33145;-86
2022/09/08 11:42:17;;;;;;;;;;;;;;;32.42;34.60;99467.56;4363034;32;32414;-87
2022/09/08 11:45:05;;;;;;;;;;;;;;;31.79;35.94;99468.94;4363606;32;34099;-87
2022/09/08 11:47:52;;;;;;;;;;;;;;;31.95;35.20;99455.91;4364623;32;34225;-87
2022/09/08 11:50:37;;;;;;;;;;;;;;;31.86;35.04;99467.09;4376925;32;34053;-87
2022/09/08 11:53:34;;;;;;;;;;;;;;;32.17;34.10;99451.87;4375586;32;33169;-87
2022/09/08 11:56:27;;;;;;;;;;;;;;;32.45;35.25;99456.22;4375751;32;34591;-87
2022/09/08 11:58:59;;;;;;;;;;;;;;;32.81;33.82;99456.44;4375979;32;34280;-87
2022/09/08 12:01:32;;;;;;;;;;;;;;;32.10;35.08;99451.91;4354060;32;34732;-86
2022/09/08 12:04:19;;;;;;;;;;;;;;;32.39;34.29;99455.19;4362487;32;33380;-86
2022/09/08 12:06:47;;;;;;;;;;;;;;;31.96;36.42;99452.16;4376055;32;33365;-86
2022/09/08 12:09:33;;;;;;;;;;;;;;;31.69;35.78;99452.16;4374410;32;33049;-86
2022/09/08 12:12:15;;;;;;;;;;;;;;;32.19;34.95;99451.63;4356293;32;33913;-86
2022/09/08 12:14:43;;;;;;;;;;;;;;;32.14;35.24;99444.09;4375584;32;33860;-86
2022/09/08 12:17:10;;;;;;;;;;;;;;;32.16;35.25;99444.72;4374207;32;34650;-86
2022/09/08 12:19:46;;;;;;;;;;;;;;;32.23;34.89;99434.59;4371892;32;34280;-86
2022/09/08 12:22:14;;;;;;;;;;;;;;;32.34;34.93;99423.03;4373289;32;34681;-87
2022/09/08 12:24:49;;;;;;;;;;;;;;;31.74;35.58;99429.69;4370473;32;33374;-87
2022/09/08 12:27:40;;;;;;;;;;;;;;;31.75;36.83;99428.63;4361520;32;33511;-87
2022/09/08 12:30:15;;;;;;;;;;;;;;;31.81;35.42;99428.63;4374435;32;34453;-86
2022/09/08 12:33:01;;;;;;;;;;;;;;;31.62;35.84;99429.53;4370570;32;34147;-86
2022/09/08 12:35:30;;;;;;;;;;;;;;;32.02;35.55;99423.97;4369979;32;32796;-86
2022/09/08 12:37:59;;;;;;;;;;;;;;;32.20;35.96;99421.41;4347110;32;34423;-86
2022/09/08 12:40:32;;;;;;;;;;;;;;;32.15;34.48;99423.09;4354138;32;33031;-86
2022/09/08 12:43:02;;;;;;;;;;;;;;;32.05;34.03;99418.09;4357929;32;33545;-86
2022/09/08 12:45:45;;;;;;;;;;;;;;;32.00;34.24;99412.41;4358536;32;32118;-86
2022/09/08 12:48:22;;;;;;;;;;;;;;;32.25;33.90;99402.47;4345433;32;34958;-86
2022/09/08 12:51:01;;;;;;;;;;;;;;;32.14;34.50;99400.38;4358401;32;33593;-86
2022/09/08 12:53:29;;;;;;;;;;;;;;;32.06;35.51;99408.84;4368474;32;33949;-86
2022/09/08 12:55:57;;;;;;;;;;;;;;;32.20;34.26;99404.19;4370467;32;32885;-86
2022/09/08 12:58:26;;;;;;;;;;;;;;;32.40;33.84;99398.63;4348453;32;32703;-87
2022/09/08 13:00:58;;;;;;;;;;;;;;;32.10;34.52;99388.25;4335631;32;32882;-87
2022/09/08 13:03:27;;;;;;;;;;;;;;;32.00;34.56;99387.84;4347968;32;33859;-86
2022/09/08 13:06:01;;;;;;;;;;;;;;;32.45;34.33;99387.88;4370691;32;32859;-86
2022/09/08 13:08:44;;;;;;;;;;;;;;;32.82;35.91;99395.22;4375198;32;34245;-86
2022/09/08 13:11:13;;;;;;;;;;;;;;;32.24;34.61;99389.03;4372532;32;34396;-85
2022/09/08 13:13:44;;;;;;;;;;;;;;;32.52;34.58;99386.81;4362428;32;34240;-86
2022/09/08 13:16:30;;;;;;;;;;;;;;;32.54;32.39;99375.66;4373672;32;33160;-86
2022/09/08 13:19:16;;;;;;;;;;;;;;;32.75;33.41;99379.91;4374368;32;34295;-86
2022/09/08 13:21:53;;;;;;;;;;;;;;;32.75;34.27;99391.69;4375726;32;35139;-86
2022/09/08 13:24:30;;;;;;;;;;;;;;;32.33;33.50;99371.31;4364242;32;33247;-85